createdAt,value
2019-03-31T00:01:44.911Z,9.65
2019-03-31T00:04:20.599Z,9.65
2019-03-31T00:06:55.558Z,10.10
2019-03-31T00:09:29.358Z,10.28
2019-03-31T00:12:04.298Z,9.20
2019-03-31T00:14:38.881Z,9.63
2019-03-31T00:17:13.265Z,9.73
2019-03-31T00:19:48.828Z,8.90
2019-03-31T00:22:23.680Z,8.93
2019-03-31T00:24:58.029Z,10.08
2019-03-31T00:27:32.744Z,10.78
2019-03-31T00:30:07.977Z,10.00
2019-03-31T00:32:42.226Z,10.90
2019-03-31T00:35:16.588Z,10.18
2019-03-31T00:37:51.053Z,10.18
2019-03-31T00:40:25.607Z,9.35
2019-03-31T00:42:59.715Z,9.33
2019-03-31T00:45:34.134Z,8.63
2019-03-31T00:48:07.650Z,8.50
2019-03-31T00:50:41.912Z,8.90
2019-03-31T00:53:16.275Z,8.50
2019-03-31T00:55:51.542Z,9.98
2019-03-31T00:58:26.305Z,9.58
2019-03-31T01:01:20.080Z,9.13
2019-03-31T01:03:54.261Z,8.45
2019-03-31T01:06:29.504Z,9.35
2019-03-31T01:09:08.039Z,9.18
2019-03-31T01:11:42.172Z,9.25
2019-03-31T01:14:15.796Z,9.98
2019-03-31T01:19:22.897Z,7.35
2019-03-31T01:21:57.310Z,9.23
2019-03-31T01:24:31.967Z,8.20
2019-03-31T01:27:09.616Z,8.48
2019-03-31T01:29:44.057Z,9.83
2019-03-31T01:32:17.965Z,9.15
2019-03-31T01:34:52.844Z,8.65
2019-03-31T01:37:26.875Z,9.43
2019-03-31T01:40:01.328Z,7.97
2019-03-31T01:42:35.706Z,8.98
2019-03-31T01:45:10.288Z,10.03
2019-03-31T01:47:44.132Z,9.35
2019-03-31T01:50:18.703Z,9.70
2019-03-31T01:52:52.650Z,9.28
2019-03-31T01:55:26.918Z,9.78
2019-03-31T01:58:01.062Z,9.45
2019-03-31T02:00:41.354Z,9.68
2019-03-31T02:03:16.647Z,8.45
2019-03-31T02:05:50.140Z,9.28
2019-03-31T02:08:24.292Z,8.45
2019-03-31T02:11:09.188Z,10.00
2019-03-31T02:13:44.142Z,9.90
2019-03-31T02:16:18.726Z,9.58
2019-03-31T02:18:53.438Z,8.40
2019-03-31T02:21:28.045Z,8.95
2019-03-31T02:24:02.290Z,8.80
2019-03-31T02:26:36.925Z,8.95
2019-03-31T02:29:12.335Z,10.25
2019-03-31T02:31:46.476Z,8.43
2019-03-31T02:34:20.040Z,8.40
2019-03-31T02:39:27.428Z,6.28
2019-03-31T02:42:01.922Z,8.03
2019-03-31T02:44:37.123Z,9.30
2019-03-31T02:47:11.833Z,8.93
2019-03-31T02:49:46.899Z,5.55
2019-03-31T02:52:21.215Z,9.08
2019-03-31T02:54:55.948Z,9.93
2019-03-31T02:57:30.811Z,9.75
2019-03-31T03:00:05.971Z,8.48
2019-03-31T03:02:42.877Z,8.90
2019-03-31T03:05:20.391Z,8.98
2019-03-31T03:07:57.325Z,10.93
2019-03-31T03:10:33.669Z,9.45
2019-03-31T03:13:12.863Z,9.55
2019-03-31T03:16:27.825Z,9.03
2019-03-31T03:19:03.530Z,8.45
2019-03-31T03:21:39.224Z,7.92
2019-03-31T03:24:13.877Z,9.03
2019-03-31T03:26:48.374Z,8.00
2019-03-31T03:29:22.222Z,9.78
2019-03-31T03:31:56.241Z,7.75
2019-03-31T03:34:30.118Z,8.60
2019-03-31T03:37:06.063Z,9.43
2019-03-31T03:39:41.445Z,8.43
2019-03-31T03:42:16.533Z,7.95
2019-03-31T03:44:50.379Z,7.92
2019-03-31T03:47:25.686Z,8.80
2019-03-31T03:50:00.647Z,9.78
2019-03-31T03:52:37.711Z,9.90
2019-03-31T03:55:15.242Z,9.10
2019-03-31T03:57:51.183Z,8.93
2019-03-31T04:00:30.950Z,9.28
2019-03-31T04:03:08.279Z,8.90
2019-03-31T04:05:43.417Z,8.83
2019-03-31T04:08:26.178Z,8.83
2019-03-31T04:11:21.137Z,8.68
2019-03-31T04:13:52.800Z,8.28
2019-03-31T04:18:59.372Z,7.47
2019-03-31T04:21:33.641Z,8.08
2019-03-31T04:24:08.620Z,7.65
2019-03-31T04:26:43.464Z,7.85
2019-03-31T04:29:17.655Z,7.85
2019-03-31T04:31:52.076Z,8.18
2019-03-31T04:34:27.031Z,7.47
2019-03-31T04:37:01.543Z,8.18
2019-03-31T04:40:18.688Z,7.65
2019-03-31T04:46:00.423Z,8.35
2019-03-31T04:48:35.918Z,7.85
2019-03-31T04:51:11.483Z,8.63
2019-03-31T04:53:45.329Z,7.95
2019-03-31T04:56:20.047Z,7.90
2019-03-31T04:58:54.572Z,9.18
2019-03-31T05:01:29.355Z,8.48
2019-03-31T05:04:05.368Z,8.00
2019-03-31T05:06:40.819Z,8.68
2019-03-31T05:09:15.557Z,7.37
2019-03-31T05:11:50.046Z,7.67
2019-03-31T05:14:25.101Z,7.55
2019-03-31T05:17:00.271Z,7.90
2019-03-31T05:19:35.005Z,8.78
2019-03-31T05:22:08.174Z,9.00
2019-03-31T05:24:42.777Z,9.25
2019-03-31T05:27:16.894Z,8.58
2019-03-31T05:29:51.453Z,7.83
2019-03-31T05:32:26.824Z,8.30
2019-03-31T05:35:02.366Z,8.35
2019-03-31T05:37:50.215Z,8.63
2019-03-31T05:40:13.017Z,9.68
2019-03-31T05:42:47.701Z,9.25
2019-03-31T05:45:22.589Z,8.38
2019-03-31T05:47:56.604Z,9.77
2019-03-31T05:50:31.319Z,9.20
2019-03-31T05:53:05.011Z,7.92
2019-03-31T05:55:40.808Z,9.60
2019-03-31T05:58:15.520Z,10.18
2019-03-31T06:00:50.559Z,7.60
2019-03-31T06:03:24.706Z,8.90
2019-03-31T06:06:11.882Z,9.08
2019-03-31T06:08:49.272Z,9.68
2019-03-31T06:11:24.345Z,9.15
2019-03-31T06:14:00.665Z,8.60
2019-03-31T06:16:36.915Z,9.98
2019-03-31T06:19:14.040Z,9.90
2019-03-31T06:21:52.372Z,11.22
2019-03-31T06:24:26.890Z,8.65
2019-03-31T06:27:00.648Z,11.43
2019-03-31T06:29:36.319Z,10.23
2019-03-31T06:32:10.430Z,14.93
2019-03-31T06:34:47.739Z,15.68
2019-03-31T06:37:21.021Z,15.88
2019-03-31T06:39:56.922Z,14.68
2019-03-31T06:42:31.898Z,13.03
2019-03-31T06:45:06.131Z,12.40
2019-03-31T06:47:41.226Z,13.18
2019-03-31T06:50:16.170Z,12.70
2019-03-31T06:52:50.462Z,14.05
2019-03-31T06:55:25.610Z,14.05
2019-03-31T06:58:01.607Z,10.75
2019-03-31T07:00:37.441Z,12.35
2019-03-31T07:03:14.406Z,12.45
2019-03-31T07:05:48.672Z,12.78
2019-03-31T07:08:23.288Z,11.75
2019-03-31T07:10:58.195Z,11.68
2019-03-31T07:13:35.228Z,13.13
2019-03-31T07:16:10.273Z,11.60
2019-03-31T07:18:45.759Z,11.18
2019-03-31T07:21:20.531Z,14.10
2019-03-31T07:23:55.683Z,12.37
2019-03-31T07:26:30.338Z,12.70
2019-03-31T07:29:08.238Z,12.10
2019-03-31T07:31:43.181Z,12.60
2019-03-31T07:34:18.592Z,12.47
2019-03-31T07:36:53.277Z,12.10
2019-03-31T07:39:29.566Z,11.90
2019-03-31T07:42:06.868Z,12.25
2019-03-31T07:44:43.670Z,11.08
2019-03-31T07:47:18.330Z,12.98
2019-03-31T07:49:52.636Z,11.40
2019-03-31T07:52:27.984Z,10.43
2019-03-31T07:55:03.018Z,10.63
2019-03-31T07:57:37.531Z,10.63
2019-03-31T08:00:15.375Z,10.70
2019-03-31T08:02:50.099Z,11.40
2019-03-31T08:05:32.839Z,10.60
2019-03-31T08:08:01.053Z,9.78
2019-03-31T08:10:37.112Z,9.38
2019-03-31T08:13:12.311Z,10.32
2019-03-31T08:15:50.789Z,10.63
2019-03-31T08:18:31.237Z,10.58
2019-03-31T08:21:05.746Z,10.23
2019-03-31T08:23:40.715Z,11.40
2019-03-31T08:26:15.619Z,10.63
2019-03-31T08:28:50.307Z,8.65
2019-03-31T08:31:26.512Z,12.10
2019-03-31T08:34:00.408Z,10.35
2019-03-31T08:36:35.445Z,11.88
2019-03-31T08:39:12.134Z,9.88
2019-03-31T08:41:46.010Z,8.65
2019-03-31T08:44:21.761Z,8.15
2019-03-31T08:46:56.483Z,9.78
2019-03-31T08:49:32.182Z,11.22
2019-03-31T08:52:06.633Z,9.35
2019-03-31T08:54:41.300Z,9.60
2019-03-31T08:57:17.866Z,9.18
2019-03-31T08:59:52.397Z,9.93
2019-03-31T09:02:28.775Z,8.08
2019-03-31T09:05:02.897Z,10.43
2019-03-31T09:07:37.082Z,10.60
2019-03-31T09:10:13.055Z,10.10
2019-03-31T09:12:48.682Z,9.65
2019-03-31T09:15:25.377Z,8.60
2019-03-31T09:17:59.485Z,9.88
2019-03-31T09:20:34.282Z,11.15
2019-03-31T09:23:09.154Z,9.00
2019-03-31T09:25:47.373Z,9.38
2019-03-31T09:28:21.173Z,8.80
2019-03-31T09:30:55.597Z,9.65
2019-03-31T09:33:30.186Z,8.93
2019-03-31T09:36:15.347Z,9.90
2019-03-31T09:38:41.195Z,9.90
2019-03-31T09:41:15.091Z,10.63
2019-03-31T09:43:49.720Z,9.33
2019-03-31T09:46:23.918Z,8.78
2019-03-31T09:48:59.102Z,8.85
2019-03-31T09:51:33.810Z,8.90
2019-03-31T09:54:11.077Z,9.37
2019-03-31T09:56:45.331Z,9.07
2019-03-31T09:59:19.199Z,8.97
2019-03-31T10:01:53.821Z,9.47
2019-03-31T10:04:28.316Z,8.23
2019-03-31T10:07:04.019Z,8.27
2019-03-31T10:09:38.414Z,8.60
2019-03-31T10:12:13.409Z,8.30
2019-03-31T10:14:48.840Z,8.73
2019-03-31T10:17:23.272Z,8.97
2019-03-31T10:19:57.717Z,8.67
2019-03-31T10:22:31.595Z,8.80
2019-03-31T10:25:06.341Z,7.87
2019-03-31T10:27:41.534Z,7.57
2019-03-31T10:30:20.580Z,7.77
2019-03-31T10:32:55.415Z,7.70
2019-03-31T10:35:30.529Z,6.90
2019-03-31T10:38:05.110Z,8.57
2019-03-31T10:40:40.460Z,8.17
2019-03-31T10:43:15.675Z,7.53
2019-03-31T10:45:49.991Z,9.03
2019-03-31T10:48:24.834Z,8.20
2019-03-31T10:51:00.383Z,7.37
2019-03-31T10:53:34.718Z,6.47
2019-03-31T10:56:10.041Z,7.10
2019-03-31T10:58:46.630Z,7.70
2019-03-31T11:01:22.129Z,8.00
2019-03-31T11:03:58.035Z,6.93
2019-03-31T11:06:32.340Z,7.20
2019-03-31T11:09:08.814Z,7.47
2019-03-31T11:11:44.233Z,7.47
2019-03-31T11:14:18.924Z,6.30
2019-03-31T11:16:52.872Z,6.17
2019-03-31T11:19:26.447Z,6.07
2019-03-31T11:22:28.650Z,10.97
2019-03-31T11:25:02.608Z,6.87
2019-03-31T11:27:36.855Z,6.27
2019-03-31T11:30:12.869Z,6.37
2019-03-31T11:32:47.791Z,6.73
2019-03-31T11:35:35.095Z,6.80
2019-03-31T11:38:09.332Z,6.03
2019-03-31T11:40:43.689Z,5.33
2019-03-31T11:43:17.842Z,5.30
2019-03-31T11:45:52.022Z,5.87
2019-03-31T11:48:26.999Z,5.17
2019-03-31T11:51:01.375Z,4.70
2019-03-31T11:53:35.899Z,4.80
2019-03-31T11:56:11.362Z,3.73
2019-03-31T11:58:45.898Z,3.77
2019-03-31T12:01:20.328Z,4.00
2019-03-31T12:03:55.137Z,3.47
2019-03-31T12:06:30.135Z,3.03
2019-03-31T12:09:06.164Z,3.00
2019-03-31T12:11:40.718Z,2.93
2019-03-31T12:14:14.673Z,2.97
2019-03-31T12:16:48.208Z,2.53
2019-03-31T12:19:22.633Z,2.43
2019-03-31T12:21:56.929Z,2.73
2019-03-31T12:24:31.947Z,3.37
2019-03-31T12:27:06.435Z,5.20
2019-03-31T12:29:41.808Z,4.80
2019-03-31T12:32:16.014Z,3.33
2019-03-31T12:34:49.821Z,3.30
2019-03-31T12:37:25.233Z,3.87
2019-03-31T12:39:59.785Z,3.00
2019-03-31T12:42:33.335Z,3.87
2019-03-31T12:45:07.356Z,3.23
2019-03-31T12:47:40.848Z,2.83
2019-03-31T12:50:16.194Z,2.90
2019-03-31T12:52:51.232Z,4.13
2019-03-31T12:55:27.762Z,3.40
2019-03-31T12:58:01.950Z,3.40
2019-03-31T13:00:36.910Z,3.53
2019-03-31T13:03:10.966Z,3.67
2019-03-31T13:05:47.781Z,5.00
2019-03-31T13:08:21.852Z,4.60
2019-03-31T13:10:56.784Z,3.97
2019-03-31T13:13:33.710Z,4.77
2019-03-31T13:16:07.992Z,4.00
2019-03-31T13:18:41.638Z,5.07
2019-03-31T13:21:15.324Z,5.30
2019-03-31T13:23:50.824Z,4.93
2019-03-31T13:26:25.674Z,4.07
2019-03-31T13:29:00.133Z,4.57
2019-03-31T13:31:37.456Z,4.40
2019-03-31T13:34:13.033Z,3.60
2019-03-31T13:36:47.624Z,3.20
2019-03-31T13:39:21.126Z,3.60
2019-03-31T13:41:55.160Z,3.20
2019-03-31T13:44:29.819Z,3.20
2019-03-31T13:47:04.721Z,3.47
2019-03-31T13:49:38.776Z,2.60
2019-03-31T13:52:12.773Z,2.95
2019-03-31T13:54:46.950Z,2.60
2019-03-31T13:57:21.749Z,2.67
2019-03-31T13:59:56.672Z,2.77
2019-03-31T14:02:31.880Z,2.70
2019-03-31T14:05:07.139Z,2.83
2019-03-31T14:07:42.662Z,3.00
2019-03-31T14:10:17.395Z,3.20
2019-03-31T14:12:51.770Z,2.77
2019-03-31T14:15:27.855Z,2.97
2019-03-31T14:18:02.286Z,2.50
2019-03-31T14:20:36.543Z,2.90
2019-03-31T14:23:14.167Z,3.00
2019-03-31T14:25:49.747Z,2.67
2019-03-31T14:28:27.852Z,2.77
2019-03-31T14:31:01.553Z,2.70
2019-03-31T14:33:35.564Z,3.13
2019-03-31T14:36:09.134Z,3.00
2019-03-31T14:38:47.284Z,3.10
2019-03-31T14:41:21.758Z,3.53
2019-03-31T14:43:55.374Z,3.90
2019-03-31T14:46:29.642Z,3.90
2019-03-31T14:49:05.841Z,4.90
2019-03-31T14:51:42.156Z,3.90
2019-03-31T14:54:18.058Z,4.53
2019-03-31T14:56:52.200Z,4.23
2019-03-31T14:59:28.136Z,4.00
2019-03-31T15:02:04.902Z,5.23
2019-03-31T15:04:40.150Z,5.37
2019-03-31T15:07:14.831Z,4.63
2019-03-31T15:09:49.565Z,5.03
2019-03-31T15:12:23.841Z,4.43
2019-03-31T15:14:59.778Z,4.63
2019-03-31T15:17:34.173Z,4.43
2019-03-31T15:20:09.893Z,3.93
2019-03-31T15:22:44.668Z,3.87
2019-03-31T15:25:19.777Z,3.90
2019-03-31T15:27:58.508Z,3.23
2019-03-31T15:30:33.248Z,5.47
2019-03-31T15:33:07.446Z,6.40
2019-03-31T15:35:41.784Z,5.63
2019-03-31T15:38:16.966Z,5.50
2019-03-31T15:40:51.022Z,5.93
2019-03-31T15:43:25.393Z,7.17
2019-03-31T15:46:01.050Z,6.53
2019-03-31T15:48:36.234Z,6.93
2019-03-31T15:51:10.212Z,7.33
2019-03-31T15:53:47.513Z,7.20
2019-03-31T15:56:21.734Z,7.17
2019-03-31T15:58:55.911Z,7.05
2019-03-31T16:01:29.352Z,7.10
2019-03-31T16:04:03.308Z,6.58
2019-03-31T16:06:36.735Z,6.50
2019-03-31T16:09:22.897Z,6.40
2019-03-31T16:11:53.533Z,7.12
2019-03-31T16:14:20.575Z,6.95
2019-03-31T16:16:53.175Z,7.62
2019-03-31T16:19:25.944Z,6.90
2019-03-31T16:21:59.746Z,12.33
2019-03-31T16:24:39.431Z,13.95
2019-03-31T16:27:12.981Z,8.03
2019-03-31T16:29:46.231Z,7.53
2019-03-31T16:32:19.455Z,8.57
2019-03-31T16:34:52.983Z,8.60
2019-03-31T16:37:27.294Z,9.47
2019-03-31T16:40:02.471Z,10.17
2019-03-31T16:42:35.887Z,11.20
2019-03-31T16:45:09.262Z,12.13
2019-03-31T16:47:42.643Z,11.67
2019-03-31T16:50:16.223Z,11.43
2019-03-31T16:52:52.496Z,12.13
2019-03-31T16:55:24.553Z,12.73
2019-03-31T16:57:57.571Z,12.30
2019-03-31T17:00:31.546Z,13.80
2019-03-31T17:03:05.303Z,13.57
2019-03-31T17:05:42.576Z,14.53
2019-03-31T17:08:16.585Z,13.60
2019-03-31T17:10:49.975Z,14.13
2019-03-31T17:13:31.039Z,13.27
2019-03-31T17:16:05.150Z,16.23
2019-03-31T17:18:38.863Z,14.67
2019-03-31T17:21:12.494Z,16.93
2019-03-31T17:23:48.558Z,17.47
2019-03-31T17:26:22.036Z,15.77
2019-03-31T17:28:55.640Z,15.55
2019-03-31T17:31:29.227Z,15.70
2019-03-31T17:34:02.745Z,17.17
2019-03-31T17:36:35.423Z,15.93
2019-03-31T17:39:09.754Z,17.20
2019-03-31T17:41:44.163Z,15.70
2019-03-31T17:44:18.040Z,16.70
2019-03-31T17:46:52.353Z,17.57
2019-03-31T17:49:26.595Z,17.95
2019-03-31T17:52:01.189Z,17.42
2019-03-31T17:54:35.262Z,16.93
2019-03-31T17:57:08.616Z,16.70
2019-03-31T17:59:41.596Z,17.92
2019-03-31T18:02:14.852Z,17.48
2019-03-31T18:04:48.290Z,17.15
2019-03-31T18:07:21.692Z,19.48
2019-03-31T18:09:55.104Z,19.40
2019-03-31T18:12:28.486Z,17.07
2019-03-31T18:15:02.388Z,18.42
2019-03-31T18:17:35.429Z,19.07
2019-03-31T18:20:09.832Z,17.85
2019-03-31T18:22:43.310Z,17.80
2019-03-31T18:25:17.586Z,13.98
2019-03-31T18:27:52.041Z,17.00
2019-03-31T18:30:25.197Z,16.48
2019-03-31T18:32:58.106Z,16.35
2019-03-31T18:35:31.457Z,16.57
2019-03-31T18:38:04.704Z,17.32
2019-03-31T18:40:38.059Z,16.62
2019-03-31T18:43:11.991Z,17.50
2019-03-31T18:45:46.496Z,19.77
2019-03-31T18:48:20.203Z,18.27
2019-03-31T18:50:53.690Z,18.32
2019-03-31T18:53:38.980Z,18.02
2019-03-31T18:56:32.027Z,18.55
2019-03-31T18:59:22.515Z,16.15
2019-03-31T19:02:13.465Z,18.27
2019-03-31T19:05:02.319Z,15.50
2019-03-31T19:07:53.542Z,14.75
2019-03-31T19:10:49.582Z,13.15
2019-03-31T19:13:31.837Z,12.27
2019-03-31T19:16:24.130Z,16.05
2019-03-31T19:19:06.773Z,15.08
2019-03-31T19:21:50.937Z,16.10
2019-03-31T19:24:41.257Z,15.18
2019-03-31T19:27:40.015Z,13.15
2019-03-31T19:30:42.086Z,14.38
2019-03-31T19:33:52.355Z,14.18
2019-03-31T19:36:38.284Z,14.53
2019-03-31T19:39:30.094Z,14.68
2019-03-31T19:42:22.032Z,12.73
2019-03-31T19:45:13.878Z,13.43
2019-03-31T19:47:58.786Z,14.15
2019-03-31T19:50:54.367Z,11.78
2019-03-31T19:53:46.673Z,13.28
2019-03-31T19:56:38.050Z,14.07
2019-03-31T19:59:27.243Z,13.43
2019-03-31T20:02:15.390Z,13.80
2019-03-31T20:05:05.968Z,12.82
2019-03-31T20:07:51.591Z,11.50
2019-03-31T20:10:46.681Z,13.65
2019-03-31T20:13:38.583Z,12.73
2019-03-31T20:16:33.631Z,12.68
2019-03-31T20:19:23.971Z,13.13
2019-03-31T20:22:09.956Z,11.93
2019-03-31T20:25:07.273Z,12.53
2019-03-31T20:27:59.704Z,12.28
2019-03-31T20:30:50.961Z,13.70
2019-03-31T20:33:40.607Z,11.90
2019-03-31T20:36:32.880Z,12.10
2019-03-31T20:39:17.660Z,12.75
2019-03-31T20:42:08.300Z,12.63
2019-03-31T20:44:44.637Z,12.65
2019-03-31T20:47:17.413Z,11.97
2019-03-31T20:49:50.587Z,11.70
2019-03-31T20:54:56.101Z,10.15
2019-03-31T20:57:30.153Z,12.20
2019-03-31T21:00:03.578Z,12.00
2019-03-31T21:05:08.016Z,11.97
2019-03-31T21:07:41.493Z,10.90
2019-03-31T21:10:15.971Z,12.55
2019-03-31T21:12:49.055Z,12.28
2019-03-31T21:15:47.615Z,12.05
2019-03-31T21:18:23.799Z,11.38
2019-03-31T21:21:21.667Z,14.05
2019-03-31T21:24:09.237Z,13.38
2019-03-31T21:27:09.183Z,12.53
2019-03-31T21:29:44.902Z,11.83
2019-03-31T21:32:20.301Z,13.85
2019-03-31T21:34:54.679Z,13.55
2019-03-31T21:37:28.385Z,12.95
2019-03-31T21:40:01.486Z,13.05
2019-03-31T21:42:34.350Z,11.93
2019-03-31T21:45:07.733Z,13.10
2019-03-31T21:47:41.582Z,12.70
2019-03-31T21:50:14.803Z,13.30
2019-03-31T21:52:48.235Z,13.13
2019-03-31T21:55:21.825Z,13.55
2019-03-31T21:57:55.396Z,14.68
2019-03-31T22:03:19.631Z,10.80
2019-03-31T22:05:53.097Z,13.70
2019-03-31T22:10:58.246Z,11.08
2019-03-31T22:13:32.306Z,12.90
2019-03-31T22:16:06.616Z,13.10
2019-03-31T22:18:42.177Z,12.28
2019-03-31T22:21:16.928Z,14.23
2019-03-31T22:23:57.857Z,13.40
2019-03-31T22:26:26.306Z,15.00
2019-03-31T22:29:00.149Z,14.03
2019-03-31T22:31:33.781Z,13.22
2019-03-31T22:36:37.876Z,10.75
2019-03-31T22:39:11.136Z,12.30
2019-03-31T22:44:15.977Z,10.70
2019-03-31T22:51:56.454Z,9.73
2019-03-31T22:54:30.402Z,12.45
2019-03-31T22:57:04.157Z,11.70
2019-03-31T22:59:37.197Z,13.22
2019-03-31T23:02:10.267Z,12.45
2019-03-31T23:04:43.503Z,12.55
2019-03-31T23:09:48.289Z,11.40
2019-03-31T23:12:21.657Z,13.28
2019-03-31T23:14:55.436Z,14.45
2019-03-31T23:17:28.684Z,12.68
2019-03-31T23:20:04.743Z,12.07
2019-03-31T23:22:38.412Z,13.45
2019-03-31T23:25:11.345Z,12.25
2019-03-31T23:27:44.114Z,11.65
2019-03-31T23:30:16.638Z,12.47
2019-03-31T23:32:50.317Z,12.15
2019-03-31T23:35:24.330Z,12.25
2019-03-31T23:37:58.123Z,13.50
2019-03-31T23:40:31.689Z,11.68
2019-03-31T23:45:35.967Z,9.63
2019-03-31T23:50:40.841Z,11.18
2019-03-31T23:53:14.422Z,12.13
2019-03-31T23:58:19.988Z,10.05
